createdAt,value
2022-10-17T00:01:26.930Z,101664.84
2022-10-17T00:04:29.043Z,101671.09
2022-10-17T00:07:31.468Z,101661.31
2022-10-17T00:10:33.595Z,101662.19
2022-10-17T00:13:36.257Z,101672.00
2022-10-17T00:16:38.333Z,101669.34
2022-10-17T00:19:40.582Z,101671.97
2022-10-17T00:22:42.668Z,101668.38
2022-10-17T00:25:45.066Z,101674.63
2022-10-17T00:28:48.781Z,101674.66
2022-10-17T00:31:54.965Z,101685.31
2022-10-17T00:34:58.002Z,101682.63
2022-10-17T00:38:00.673Z,101695.09
2022-10-17T00:41:03.328Z,101696.91
2022-10-17T00:44:31.692Z,101701.38
2022-10-17T00:47:34.402Z,101692.47
2022-10-17T00:50:39.288Z,101696.03
2022-10-17T00:53:41.292Z,101695.16
2022-10-17T00:56:44.107Z,101691.59
2022-10-17T00:59:52.092Z,101693.38
2022-10-17T01:02:54.544Z,101688.91
2022-10-17T01:05:57.409Z,101674.66
2022-10-17T01:09:00.172Z,101686.25
2022-10-17T01:12:17.350Z,101682.66
2022-10-17T01:15:37.504Z,101679.09
2022-10-17T01:19:16.698Z,101685.28
2022-10-17T01:22:37.405Z,101682.59
2022-10-17T01:25:50.363Z,101680.84
2022-10-17T01:29:33.178Z,101686.16
2022-10-17T01:32:39.931Z,101679.03
2022-10-17T01:36:06.115Z,101679.06
2022-10-17T01:39:21.532Z,101681.72
2022-10-17T01:42:31.601Z,101677.25
2022-10-17T01:46:06.188Z,101680.78
2022-10-17T01:49:10.352Z,101695.00
2022-10-17T01:52:16.578Z,101686.13
2022-10-17T01:55:21.805Z,101681.63
2022-10-17T01:58:34.487Z,101677.13
2022-10-17T02:01:38.581Z,101683.38
2022-10-17T02:04:42.154Z,101680.66
2022-10-17T02:07:44.410Z,101669.97
2022-10-17T02:11:02.590Z,101677.06
2022-10-17T02:14:04.873Z,101686.78
2022-10-17T02:17:25.901Z,101689.47
2022-10-17T02:21:07.335Z,101691.25
2022-10-17T02:24:31.945Z,101707.22
2022-10-17T02:27:45.470Z,101711.66
2022-10-17T02:30:57.070Z,101715.22
2022-10-17T02:34:03.074Z,101715.22
2022-10-17T02:37:07.611Z,101720.53
2022-10-17T02:40:11.209Z,101724.03
2022-10-17T02:43:14.753Z,101719.53
2022-10-17T02:46:22.496Z,101738.19
2022-10-17T02:49:28.921Z,101759.56
2022-10-17T02:52:40.553Z,101752.44
2022-10-17T02:55:54.284Z,101753.31
2022-10-17T02:58:58.807Z,101761.38
2022-10-17T03:02:04.148Z,101756.03
2022-10-17T03:05:07.520Z,101758.69
2022-10-17T03:08:09.562Z,101749.75
2022-10-17T03:11:11.844Z,101746.22
2022-10-17T03:14:14.760Z,101744.44
2022-10-17T03:17:17.943Z,101741.84
2022-10-17T03:20:20.841Z,101739.25
2022-10-17T03:23:23.185Z,101741.06
2022-10-17T03:26:25.335Z,101735.75
2022-10-17T03:29:27.838Z,101745.56
2022-10-17T03:32:30.059Z,101746.47
2022-10-17T03:35:32.275Z,101758.06
2022-10-17T03:38:35.637Z,101748.25
2022-10-17T03:41:38.098Z,101754.50
2022-10-17T03:44:40.146Z,101759.84
2022-10-17T03:47:42.591Z,101766.97
2022-10-17T03:50:45.073Z,101759.88
2022-10-17T03:53:47.526Z,101770.59
2022-10-17T03:56:49.585Z,101780.41
2022-10-17T03:59:54.795Z,101786.63
2022-10-17T04:02:58.241Z,101784.88
2022-10-17T04:06:03.723Z,101777.75
2022-10-17T04:09:08.202Z,101784.88
2022-10-17T04:12:19.510Z,101805.34
2022-10-17T04:15:22.112Z,101806.25
2022-10-17T04:18:24.764Z,101799.16
2022-10-17T04:21:28.393Z,101806.25
2022-10-17T04:24:32.487Z,101803.56
2022-10-17T04:27:43.780Z,101799.06
2022-10-17T04:30:46.907Z,101804.38
2022-10-17T04:33:50.679Z,101806.97
2022-10-17T04:36:53.186Z,101801.59
2022-10-17T04:39:55.496Z,101798.94
2022-10-17T04:42:57.951Z,101806.00
2022-10-17T04:46:13.630Z,101824.63
2022-10-17T04:49:16.117Z,101814.84
2022-10-17T04:52:21.108Z,101813.88
2022-10-17T04:55:26.198Z,101823.69
2022-10-17T04:58:30.091Z,101818.38
2022-10-17T05:01:32.440Z,101812.09
2022-10-17T05:04:35.089Z,101817.41
2022-10-17T05:07:40.827Z,101834.28
2022-10-17T05:10:48.962Z,101827.16
2022-10-17T05:13:56.560Z,101833.34
2022-10-17T05:16:59.644Z,101834.25
2022-10-17T05:20:02.122Z,101844.00
2022-10-17T05:23:06.673Z,101851.97
2022-10-17T05:26:14.736Z,101855.56
2022-10-17T05:29:17.358Z,101860.91
2022-10-17T05:32:25.335Z,101856.44
2022-10-17T05:35:27.372Z,101858.25
2022-10-17T05:38:29.677Z,101864.50
2022-10-17T05:41:32.314Z,101858.34
2022-10-17T05:44:34.677Z,101861.97
2022-10-17T05:47:36.818Z,101848.66
2022-10-17T05:50:39.815Z,101854.06
2022-10-17T05:53:50.060Z,101866.53
2022-10-17T05:56:58.883Z,101873.72
2022-10-17T06:00:06.363Z,101875.50
2022-10-17T06:03:18.980Z,101879.09
2022-10-17T06:06:22.333Z,101875.66
2022-10-17T06:09:24.674Z,101875.72
2022-10-17T06:12:29.409Z,101878.50
2022-10-17T06:15:32.472Z,101889.22
2022-10-17T06:18:40.200Z,101896.41
2022-10-17T06:21:47.371Z,101890.44
2022-10-17T06:24:54.738Z,101898.53
2022-10-17T06:27:58.280Z,101902.06
2022-10-17T06:31:05.046Z,101896.69
2022-10-17T06:34:07.151Z,101904.75
2022-10-17T06:37:10.560Z,101903.00
2022-10-17T06:40:16.907Z,101903.00
2022-10-17T06:43:25.563Z,101911.06
2022-10-17T06:46:50.386Z,101910.16
2022-10-17T06:49:53.589Z,101899.50
2022-10-17T06:53:01.530Z,101904.84
2022-10-17T06:56:26.867Z,101904.00
2022-10-17T06:59:44.487Z,101919.16
2022-10-17T07:02:53.018Z,101917.38
2022-10-17T07:05:56.201Z,101923.63
2022-10-17T07:09:01.140Z,101912.06
2022-10-17T07:12:03.497Z,101926.38
2022-10-17T07:15:06.221Z,101926.34
2022-10-17T07:18:10.016Z,101929.09
2022-10-17T07:21:12.190Z,101925.53
2022-10-17T07:24:15.674Z,101928.22
2022-10-17T07:27:22.611Z,101938.03
2022-10-17T07:30:24.949Z,101946.06
2022-10-17T07:33:47.503Z,101954.13
2022-10-17T07:36:52.089Z,101955.00
2022-10-17T07:39:54.676Z,101958.56
2022-10-17T07:42:56.878Z,101961.25
2022-10-17T07:46:01.731Z,101957.69
2022-10-17T07:49:04.926Z,101959.44
2022-10-17T07:52:07.545Z,101954.06
2022-10-17T07:55:10.040Z,101957.63
2022-10-17T07:58:12.990Z,101971.91
2022-10-17T08:01:15.927Z,101966.53
2022-10-17T08:04:18.656Z,101969.22
2022-10-17T08:07:25.492Z,101978.09
2022-10-17T08:10:30.890Z,101966.44
2022-10-17T08:13:33.159Z,101973.56
2022-10-17T08:16:35.737Z,101973.53
2022-10-17T08:19:40.978Z,101966.31
2022-10-17T08:22:43.453Z,101953.69
2022-10-17T08:25:45.539Z,101956.34
2022-10-17T08:28:48.192Z,101957.19
2022-10-17T08:31:54.088Z,101953.53
2022-10-17T08:35:01.353Z,101957.03
2022-10-17T08:38:03.846Z,101958.78
2022-10-17T08:41:32.545Z,101959.59
2022-10-17T08:44:53.443Z,101946.03
2022-10-17T08:48:00.564Z,101939.63
2022-10-17T08:51:09.614Z,101938.56
2022-10-17T08:54:18.633Z,101933.81
2022-10-17T08:57:20.881Z,101930.00
2022-10-17T09:00:23.682Z,101931.38
2022-10-17T09:03:41.839Z,101918.47
2022-10-17T09:07:08.742Z,101924.50
2022-10-17T09:10:38.815Z,101921.38
2022-10-17T09:13:41.057Z,101927.38
2022-10-17T09:17:12.557Z,101943.91
2022-10-17T09:20:16.546Z,101937.19
2022-10-17T09:23:28.580Z,101941.06
2022-10-17T09:26:30.976Z,101934.19
2022-10-17T09:29:37.949Z,101938.41
2022-10-17T09:32:43.115Z,101939.81
2022-10-17T09:35:46.066Z,101918.72
2022-10-17T09:39:13.748Z,101923.91
2022-10-17T09:42:22.051Z,101921.88
2022-10-17T09:45:26.794Z,101933.97
2022-10-17T09:48:34.227Z,101923.53
2022-10-17T09:51:37.914Z,101922.25
2022-10-17T09:54:41.839Z,101917.16
2022-10-17T09:58:04.861Z,101919.22
2022-10-17T10:01:26.890Z,101908.22
2022-10-17T10:04:30.383Z,101914.66
2022-10-17T10:07:39.662Z,101905.38
2022-10-17T10:10:45.861Z,101901.88
2022-10-17T10:13:49.554Z,101912.31
2022-10-17T10:16:53.884Z,101909.69
2022-10-17T10:19:56.461Z,101905.16
2022-10-17T10:23:14.442Z,101906.22
2022-10-17T10:26:27.887Z,101903.94
2022-10-17T10:29:34.510Z,101913.69
2022-10-17T10:32:37.701Z,101897.88
2022-10-17T10:35:40.168Z,101902.25
2022-10-17T10:38:43.642Z,101903.78
2022-10-17T10:41:48.925Z,101887.69
2022-10-17T10:44:52.457Z,101889.66
2022-10-17T10:47:56.962Z,101892.78
2022-10-17T10:51:02.749Z,101903.88
2022-10-17T10:54:21.594Z,101902.25
2022-10-17T10:57:25.941Z,101903.56
2022-10-17T11:00:29.457Z,101903.63
2022-10-17T11:03:38.038Z,101899.34
2022-10-17T11:06:41.945Z,101896.34
2022-10-17T11:09:50.120Z,101897.72
2022-10-17T11:13:04.098Z,101899.25
2022-10-17T11:16:24.806Z,101893.34
2022-10-17T11:19:34.247Z,101897.66
2022-10-17T11:22:47.184Z,101906.53
2022-10-17T11:25:51.833Z,101892.34
2022-10-17T11:28:55.030Z,101882.41
2022-10-17T11:32:06.146Z,101884.66
2022-10-17T11:35:23.715Z,101898.59
2022-10-17T11:38:46.312Z,101891.31
2022-10-17T11:41:58.837Z,101898.34
2022-10-17T11:45:18.604Z,101892.50
2022-10-17T11:49:04.118Z,101891.44
2022-10-17T11:52:56.466Z,101890.13
2022-10-17T11:56:00.630Z,101888.50
2022-10-17T11:59:29.860Z,101882.41
2022-10-17T12:02:39.175Z,101885.97
2022-10-17T12:05:53.292Z,101887.16
2022-10-17T12:09:04.218Z,101876.72
2022-10-17T12:12:07.029Z,101875.97
2022-10-17T12:15:12.051Z,101875.50
2022-10-17T12:18:17.346Z,101873.94
2022-10-17T12:21:19.487Z,101873.16
2022-10-17T12:24:34.533Z,101852.91
2022-10-17T12:27:42.311Z,101855.97
2022-10-17T12:30:50.487Z,101847.91
2022-10-17T12:34:03.652Z,101847.09
2022-10-17T12:37:11.433Z,101855.09
2022-10-17T12:40:35.097Z,101839.34
2022-10-17T12:43:44.933Z,101845.19
2022-10-17T12:46:57.535Z,101844.28
2022-10-17T12:50:00.000Z,101842.75
2022-10-17T12:53:06.762Z,101848.31
2022-10-17T12:56:09.303Z,101846.78
2022-10-17T12:59:14.361Z,101845.63
2022-10-17T13:02:20.638Z,101840.63
2022-10-17T13:05:28.501Z,101841.59
2022-10-17T13:08:34.351Z,101844.53
2022-10-17T13:11:38.152Z,101841.78
2022-10-17T13:14:42.640Z,101836.59
2022-10-17T13:17:45.107Z,101837.34
2022-10-17T13:21:07.223Z,101829.78
2022-10-17T13:24:32.733Z,101831.75
2022-10-17T13:27:35.856Z,101833.47
2022-10-17T13:30:38.117Z,101826.22
2022-10-17T13:33:41.081Z,101827.69
2022-10-17T13:36:48.516Z,101838.06
2022-10-17T13:40:07.068Z,101836.94
2022-10-17T13:43:19.717Z,101825.47
2022-10-17T13:46:37.956Z,101828.97
2022-10-17T13:49:41.955Z,101832.72
2022-10-17T13:52:44.350Z,101835.34
2022-10-17T13:59:41.403Z,101833.16
2022-10-17T14:02:43.684Z,101826.97
2022-10-17T14:06:25.185Z,101830.44
2022-10-17T14:09:29.352Z,101829.72
2022-10-17T14:12:31.766Z,101823.84
2022-10-17T14:15:35.745Z,101820.34
2022-10-17T14:18:38.672Z,101816.22
2022-10-17T14:21:44.608Z,101820.41
2022-10-17T14:24:47.890Z,101817.88
2022-10-17T14:27:57.984Z,101810.69
2022-10-17T14:31:15.565Z,101818.31
2022-10-17T14:34:24.941Z,101816.25
2022-10-17T14:37:47.700Z,101809.16
2022-10-17T14:41:37.369Z,101803.69
2022-10-17T14:44:29.996Z,101809.34
2022-10-17T14:47:43.242Z,101807.69
2022-10-17T14:51:09.312Z,101812.47
2022-10-17T14:54:20.295Z,101809.94
2022-10-17T14:57:28.755Z,101810.03
2022-10-17T15:00:31.217Z,101805.00
2022-10-17T15:03:33.623Z,101809.69
2022-10-17T15:06:35.774Z,101810.09
2022-10-17T15:09:38.117Z,101813.84
2022-10-17T15:12:47.913Z,101813.31
2022-10-17T15:15:59.768Z,101813.44
2022-10-17T15:19:02.037Z,101815.50
2022-10-17T15:22:04.501Z,101822.06
2022-10-17T15:25:07.444Z,101813.31
2022-10-17T15:28:13.172Z,101809.06
2022-10-17T15:31:18.202Z,101809.41
2022-10-17T15:34:20.568Z,101800.81
2022-10-17T15:37:25.469Z,101805.72
2022-10-17T15:40:30.026Z,101809.78
2022-10-17T15:43:32.244Z,101810.19
2022-10-17T15:46:35.552Z,101811.34
2022-10-17T15:49:37.611Z,101808.81
2022-10-17T15:52:41.249Z,101815.28
2022-10-17T15:55:43.384Z,101812.75
2022-10-17T15:58:45.756Z,101802.97
2022-10-17T16:01:48.776Z,101797.81
2022-10-17T16:04:51.853Z,101796.44
2022-10-17T16:07:54.843Z,101795.84
2022-10-17T16:10:57.474Z,101806.06
2022-10-17T16:14:02.208Z,101800.25
2022-10-17T16:17:04.915Z,101801.25
2022-10-17T16:20:07.801Z,101799.53
2022-10-17T16:23:12.263Z,101791.66
2022-10-17T16:26:16.106Z,101787.38
2022-10-17T16:29:19.588Z,101797.38
2022-10-17T16:32:21.788Z,101796.50
2022-10-17T16:35:33.171Z,101793.06
2022-10-17T16:38:38.943Z,101793.22
2022-10-17T16:41:41.361Z,101788.91
2022-10-17T16:44:43.475Z,101795.31
2022-10-17T16:47:46.219Z,101791.91
2022-10-17T16:50:48.519Z,101795.66
2022-10-17T16:53:54.390Z,101798.47
2022-10-17T16:56:59.461Z,101792.34
2022-10-17T17:00:02.624Z,101794.22
2022-10-17T17:03:04.907Z,101789.84
2022-10-17T17:06:08.721Z,101790.88
2022-10-17T17:09:10.961Z,101795.38
2022-10-17T17:12:13.605Z,101780.25
2022-10-17T17:15:15.739Z,101798.16
2022-10-17T17:18:18.130Z,101791.03
2022-10-17T17:21:20.241Z,101794.69
2022-10-17T17:24:22.748Z,101786.72
2022-10-17T17:27:28.407Z,101784.06
2022-10-17T17:30:31.030Z,101785.06
2022-10-17T17:33:33.931Z,101785.94
2022-10-17T17:36:37.680Z,101780.63
2022-10-17T17:39:39.964Z,101794.91
2022-10-17T17:42:42.749Z,101788.56
2022-10-17T17:45:46.085Z,101779.66
2022-10-17T17:48:49.687Z,101781.50
2022-10-17T17:51:52.002Z,101777.88
2022-10-17T17:54:54.477Z,101782.34
2022-10-17T17:57:57.113Z,101771.69
2022-10-17T18:01:00.379Z,101781.50
2022-10-17T18:04:02.645Z,101787.75
2022-10-17T18:07:04.830Z,101785.09
2022-10-17T18:10:07.965Z,101787.81
2022-10-17T18:13:10.336Z,101784.25
2022-10-17T18:16:13.505Z,101786.09
2022-10-17T18:19:16.492Z,101787.88
2022-10-17T18:22:18.607Z,101785.22
2022-10-17T18:25:20.985Z,101784.34
2022-10-17T18:28:24.052Z,101773.59
2022-10-17T18:31:32.296Z,101766.47
2022-10-17T18:34:34.628Z,101758.41
2022-10-17T18:37:36.930Z,101762.84
2022-10-17T18:40:38.978Z,101759.25
2022-10-17T18:43:43.030Z,101769.94
2022-10-17T18:49:48.781Z,101765.41
2022-10-17T18:52:51.300Z,101766.31
2022-10-17T18:55:54.658Z,101767.19
2022-10-17T18:58:57.072Z,101768.09
2022-10-17T19:01:59.703Z,101771.69
2022-10-17T19:05:02.161Z,101753.81
2022-10-17T19:08:04.953Z,101762.78
2022-10-17T19:11:13.672Z,101766.34
2022-10-17T19:14:16.264Z,101750.31
2022-10-17T19:17:19.443Z,101746.72
2022-10-17T19:20:21.811Z,101744.94
2022-10-17T19:23:24.070Z,101744.84
2022-10-17T19:26:28.361Z,101737.66
2022-10-17T19:29:33.936Z,101744.88
2022-10-17T19:32:36.666Z,101738.56
2022-10-17T19:35:39.950Z,101740.34
2022-10-17T19:38:42.171Z,101742.22
2022-10-17T19:41:46.105Z,101741.31
2022-10-17T19:44:48.361Z,101747.56
2022-10-17T19:47:50.698Z,101736.84
2022-10-17T19:50:53.608Z,101745.75
2022-10-17T19:53:57.251Z,101748.44
2022-10-17T19:56:59.574Z,101744.84
2022-10-17T20:00:01.823Z,101741.28
2022-10-17T20:03:13.677Z,101743.09
2022-10-17T20:06:16.254Z,101735.94
2022-10-17T20:09:18.623Z,101730.66
2022-10-17T20:12:20.813Z,101731.53
2022-10-17T20:15:23.265Z,101730.69
2022-10-17T20:18:26.641Z,101726.22
2022-10-17T20:21:32.565Z,101726.16
2022-10-17T20:24:34.843Z,101719.06
2022-10-17T20:27:37.337Z,101711.03
2022-10-17T20:30:45.548Z,101712.81
2022-10-17T20:33:47.875Z,101716.38
2022-10-17T20:36:50.375Z,101706.66
2022-10-17T20:40:16.644Z,101699.53
2022-10-17T20:43:14.914Z,101705.78
2022-10-17T20:46:35.163Z,101710.25
2022-10-17T20:49:37.781Z,101701.28
2022-10-17T20:52:40.114Z,101697.72
2022-10-17T20:55:42.440Z,101692.44
2022-10-17T20:58:44.673Z,101706.69
2022-10-17T21:01:47.410Z,101703.13
2022-10-17T21:04:49.936Z,101704.94
2022-10-17T21:07:52.097Z,101704.09
2022-10-17T21:10:54.394Z,101702.31
2022-10-17T21:14:04.862Z,101697.88
2022-10-17T21:17:07.211Z,101688.09
2022-10-17T21:20:10.198Z,101689.00
2022-10-17T21:23:12.541Z,101678.31
2022-10-17T21:26:15.664Z,101680.13
2022-10-17T21:29:18.032Z,101673.88
2022-10-17T21:32:33.399Z,101684.59
2022-10-17T21:35:42.295Z,101682.81
2022-10-17T21:38:46.165Z,101684.59
2022-10-17T21:41:48.332Z,101683.72
2022-10-17T21:44:50.369Z,101677.47
2022-10-17T21:48:11.820Z,101681.03
2022-10-17T21:51:17.084Z,101679.25
2022-10-17T21:54:20.071Z,101671.22
2022-10-17T21:57:22.510Z,101679.25
2022-10-17T22:00:24.799Z,101681.94
2022-10-17T22:03:27.005Z,101671.22
2022-10-17T22:06:39.619Z,101679.25
2022-10-17T22:09:42.435Z,101682.81
2022-10-17T22:12:44.662Z,101677.47
2022-10-17T22:15:46.742Z,101672.13
2022-10-17T22:18:49.192Z,101670.34
2022-10-17T22:21:51.541Z,101674.81
2022-10-17T22:24:53.947Z,101681.06
2022-10-17T22:27:55.907Z,101679.25
2022-10-17T22:30:58.275Z,101673.94
2022-10-17T22:34:00.622Z,101668.56
2022-10-17T22:37:02.981Z,101671.22
2022-10-17T22:40:06.237Z,101672.09
2022-10-17T22:43:08.476Z,101671.25
2022-10-17T22:46:12.887Z,101671.19
2022-10-17T22:49:15.271Z,101671.19
2022-10-17T22:52:17.285Z,101676.56
2022-10-17T22:55:19.550Z,101671.19
2022-10-17T22:58:22.578Z,101667.56
2022-10-17T23:01:25.646Z,101675.56
2022-10-17T23:04:27.794Z,101678.22
2022-10-17T23:07:30.813Z,101670.19
2022-10-17T23:10:33.067Z,101678.16
2022-10-17T23:13:35.562Z,101668.31
2022-10-17T23:16:37.653Z,101671.84
2022-10-17T23:19:40.192Z,101676.22
2022-10-17T23:22:42.239Z,101659.22
2022-10-17T23:25:44.546Z,101667.25
2022-10-17T23:28:47.006Z,101677.94
2022-10-17T23:31:49.626Z,101676.13
2022-10-17T23:34:51.659Z,101665.44
2022-10-17T23:37:53.868Z,101670.78
2022-10-17T23:40:55.863Z,101668.13
2022-10-17T23:43:58.636Z,101662.75
2022-10-17T23:47:00.663Z,101659.13
2022-10-17T23:50:03.568Z,101647.53
2022-10-17T23:53:05.568Z,101659.09
2022-10-17T23:56:09.431Z,101651.94
2022-10-17T23:59:11.516Z,101650.09
